createdAt,value
2022-08-25T07:41:38.021Z,93606.78
2022-08-25T07:42:36.072Z,93603.88
2022-08-25T07:43:34.293Z,93611.28
2022-08-25T07:44:32.704Z,93611.22
2022-08-25T07:45:32.190Z,93605.66
2022-08-25T07:46:28.865Z,93617.41
2022-08-25T07:47:25.540Z,93619.13
2022-08-25T07:48:22.189Z,93611.63
2022-08-25T07:49:23.232Z,93613.28
2022-08-25T07:50:20.665Z,93615.78
2022-08-25T07:51:17.545Z,93606.31
2022-08-25T07:52:15.025Z,93611.38
2022-08-25T07:53:13.358Z,93608.81
2022-08-25T07:54:11.300Z,93608.72
2022-08-25T07:55:11.150Z,93602.59
2022-08-25T07:56:13.627Z,93609.06
2022-08-25T07:57:10.248Z,93604.13
2022-08-25T07:58:08.470Z,93602.28
2022-08-25T07:59:05.308Z,93602.44
2022-08-25T08:00:02.009Z,93598.09
2022-08-25T08:01:00.702Z,93593.06
2022-08-25T08:01:57.481Z,93595.19
2022-08-25T08:02:54.257Z,93604.59
2022-08-25T08:03:51.695Z,93589.31
2022-08-25T08:04:50.114Z,93598.50
2022-08-25T08:05:47.495Z,93601.31
2022-08-25T08:06:45.979Z,93604.22
2022-08-25T08:07:43.755Z,93598.38
2022-08-25T08:08:45.622Z,93592.84
2022-08-25T08:09:42.459Z,93591.97
2022-08-25T08:11:03.198Z,93590.34
2022-08-25T08:11:57.771Z,93591.88
2022-08-25T08:12:54.582Z,93589.50
2022-08-25T08:13:52.184Z,93587.28
2022-08-25T08:14:49.405Z,93577.13
2022-08-25T08:15:46.782Z,93587.66
2022-08-25T08:16:43.678Z,93569.03
2022-08-25T08:17:40.647Z,93578.34
2022-08-25T08:18:37.416Z,93576.63
2022-08-25T08:19:36.419Z,93584.94
2022-08-25T08:20:43.175Z,93583.44
2022-08-25T08:21:40.027Z,93578.03
2022-08-25T08:22:38.219Z,93580.50
2022-08-25T08:23:35.808Z,93576.19
2022-08-25T08:24:44.755Z,93575.59
2022-08-25T08:25:51.155Z,93574.19
2022-08-25T08:26:58.696Z,93579.81
2022-08-25T08:27:56.760Z,93575.78
2022-08-25T08:28:53.584Z,93574.53
2022-08-25T08:29:53.718Z,93574.53
2022-08-25T08:30:53.121Z,93578.03
2022-08-25T08:31:50.554Z,93577.44
2022-08-25T08:33:08.706Z,93581.78
2022-08-25T08:34:06.535Z,93578.56
2022-08-25T08:35:05.791Z,93581.06
2022-08-25T08:36:12.396Z,93581.41
2022-08-25T08:37:10.403Z,93582.63
2022-08-25T08:38:14.569Z,93586.63
2022-08-25T08:39:11.777Z,93581.56
2022-08-25T08:40:09.762Z,93578.00
2022-08-25T08:42:07.298Z,93571.47
2022-08-25T08:43:18.501Z,93566.22
2022-08-25T08:44:18.971Z,93569.34
2022-08-25T08:45:43.960Z,93566.63
2022-08-25T08:47:03.020Z,93559.41
2022-08-25T08:48:02.509Z,93567.78
2022-08-25T08:49:05.742Z,93560.94
2022-08-25T08:50:33.013Z,93569.84
2022-08-25T08:51:40.105Z,93554.72
2022-08-25T08:52:50.081Z,93566.38
2022-08-25T08:54:15.419Z,93556.44
2022-08-25T08:55:28.023Z,93546.44
2022-08-25T08:56:31.100Z,93563.06
2022-08-25T08:57:29.860Z,93564.47
2022-08-25T08:58:37.800Z,93557.84
2022-08-25T08:59:49.193Z,93563.72
2022-08-25T09:01:03.775Z,93558.69
2022-08-25T09:02:04.083Z,93565.41
2022-08-25T09:03:33.238Z,93563.84
2022-08-25T09:04:36.483Z,93558.56
2022-08-25T09:05:46.835Z,93563.53
2022-08-25T09:06:49.610Z,93553.19
2022-08-25T09:07:56.170Z,93554.72
2022-08-25T09:08:55.649Z,93527.53
2022-08-25T09:09:56.603Z,93542.03
2022-08-25T09:11:36.669Z,93552.06
2022-08-25T09:13:11.349Z,93554.88
2022-08-25T09:14:14.607Z,93564.56
2022-08-25T09:16:01.713Z,93557.31
2022-08-25T09:17:07.134Z,93550.38
2022-08-25T09:18:16.439Z,93540.50
2022-08-25T09:19:32.203Z,93563.53
2022-08-25T09:20:40.828Z,93557.53
2022-08-25T09:21:45.774Z,93555.91
2022-08-25T09:22:43.942Z,93556.94
2022-08-25T09:24:04.888Z,93570.84
2022-08-25T09:25:16.350Z,93559.75
2022-08-25T09:26:28.611Z,93560.91
2022-08-25T09:27:40.463Z,93558.91
2022-08-25T09:28:37.115Z,93567.38
2022-08-25T09:30:11.899Z,93559.44
2022-08-25T09:31:20.367Z,93551.28
2022-08-25T09:32:24.146Z,93558.16
2022-08-25T09:33:25.358Z,93551.69
2022-08-25T09:34:28.592Z,93546.66
2022-08-25T09:35:28.493Z,93550.50
2022-08-25T09:36:25.718Z,93553.25
2022-08-25T09:37:24.181Z,93557.03
2022-08-25T09:38:21.985Z,93542.69
2022-08-25T09:39:19.916Z,93542.97
2022-08-25T09:40:16.622Z,93557.81
2022-08-25T09:41:17.607Z,93550.50
2022-08-25T09:42:23.927Z,93552.78
2022-08-25T09:43:43.622Z,93551.25
2022-08-25T09:44:43.887Z,93543.19
2022-08-25T09:45:47.560Z,93554.16
2022-08-25T09:47:14.826Z,93529.41
2022-08-25T09:48:22.510Z,93556.66
2022-08-25T09:49:19.403Z,93553.44
2022-08-25T09:50:20.149Z,93531.94
2022-08-25T09:51:16.780Z,93541.97
2022-08-25T09:52:38.200Z,93545.94
2022-08-25T09:53:48.161Z,93533.00
2022-08-25T09:54:46.866Z,93538.56
2022-08-25T09:55:47.443Z,93538.41
2022-08-25T09:56:51.439Z,93546.66
2022-08-25T09:57:52.983Z,93543.16
2022-08-25T09:58:50.245Z,93537.19
2022-08-25T09:59:57.702Z,93546.38
2022-08-25T10:01:06.570Z,93542.31
2022-08-25T10:02:24.132Z,93543.09
2022-08-25T10:03:24.603Z,93546.09
2022-08-25T10:04:48.356Z,93535.09
2022-08-25T10:06:01.504Z,93535.91
2022-08-25T10:07:00.606Z,93556.38
2022-08-25T10:08:03.428Z,93554.19
2022-08-25T10:09:06.754Z,93549.25
2022-08-25T10:10:18.385Z,93553.38
2022-08-25T10:11:34.312Z,93540.34
2022-08-25T10:12:42.519Z,93547.38
2022-08-25T10:13:41.868Z,93535.09
2022-08-25T10:14:44.582Z,93541.78
2022-08-25T10:15:41.507Z,93539.13
2022-08-25T10:16:38.483Z,93540.25
2022-08-25T10:17:35.510Z,93541.88
2022-08-25T10:18:33.722Z,93545.47
2022-08-25T10:19:30.617Z,93549.78
2022-08-25T10:20:28.653Z,93528.41
2022-08-25T10:21:32.651Z,93548.16
2022-08-25T10:22:32.667Z,93546.34
2022-08-25T10:23:30.649Z,93546.13
2022-08-25T10:24:27.500Z,93546.16
2022-08-25T10:25:33.021Z,93527.72
2022-08-25T10:26:55.390Z,93549.34
2022-08-25T10:28:16.012Z,93555.28
2022-08-25T10:29:30.988Z,93541.22
2022-08-25T10:30:38.201Z,93548.72
2022-08-25T10:31:44.746Z,93548.19
2022-08-25T10:32:59.602Z,93547.06
2022-08-25T10:34:20.054Z,93555.81
2022-08-25T10:35:27.718Z,93544.69
2022-08-25T10:36:36.402Z,93548.53
2022-08-25T10:37:57.919Z,93534.97
2022-08-25T10:39:01.620Z,93537.66
2022-08-25T10:40:36.512Z,93535.84
2022-08-25T10:42:02.128Z,93533.94
2022-08-25T10:43:08.573Z,93533.94
2022-08-25T10:44:37.071Z,93533.94
2022-08-25T10:46:02.323Z,93531.53
2022-08-25T10:47:29.685Z,93537.13
2022-08-25T10:49:00.550Z,93530.56
2022-08-25T10:50:40.833Z,93544.41
2022-08-25T10:52:01.419Z,93532.34
2022-08-25T10:53:33.625Z,93536.66
2022-08-25T10:54:43.031Z,93537.09
2022-08-25T10:55:55.131Z,93533.13
2022-08-25T10:57:00.938Z,93540.13
2022-08-25T10:58:09.924Z,93535.69
2022-08-25T10:59:13.010Z,93542.00
2022-08-25T11:00:14.047Z,93531.84
2022-08-25T11:01:43.668Z,93535.94
2022-08-25T11:03:26.696Z,93538.88
2022-08-25T11:04:30.682Z,93536.53
2022-08-25T11:05:51.893Z,93528.63
2022-08-25T11:06:55.457Z,93519.72
2022-08-25T11:08:11.553Z,93529.19
2022-08-25T11:09:13.137Z,93523.22
2022-08-25T11:10:20.224Z,93506.94
2022-08-25T11:11:25.854Z,93526.66
2022-08-25T11:12:35.807Z,93525.97
2022-08-25T11:13:45.919Z,93515.56
2022-08-25T11:14:57.150Z,93505.63
2022-08-25T11:16:16.570Z,93522.47
2022-08-25T11:17:25.563Z,93522.41
2022-08-25T11:18:25.109Z,93516.09
2022-08-25T11:19:36.388Z,93518.69
2022-08-25T11:21:01.335Z,93507.88
2022-08-25T11:22:04.636Z,93510.47
2022-08-25T11:23:24.365Z,93510.31
2022-08-25T11:24:20.971Z,93500.13
2022-08-25T11:25:20.024Z,93503.59
2022-08-25T11:26:31.850Z,93507.69
2022-08-25T11:27:50.669Z,93500.88
2022-08-25T11:29:03.690Z,93508.34
2022-08-25T11:30:10.622Z,93497.53
2022-08-25T11:31:09.982Z,93492.66
2022-08-25T11:32:07.075Z,93478.56
2022-08-25T11:33:05.015Z,93501.06
2022-08-25T11:34:10.815Z,93504.97
2022-08-25T11:35:12.108Z,93497.53
2022-08-25T11:36:15.300Z,93500.28
2022-08-25T11:37:27.927Z,93489.16
2022-08-25T11:38:39.834Z,93496.56
2022-08-25T11:39:59.208Z,93493.44
2022-08-25T11:40:58.905Z,93484.59
2022-08-25T11:42:19.849Z,93487.13
2022-08-25T11:43:44.389Z,93488.25
2022-08-25T11:45:08.785Z,93492.91
2022-08-25T11:46:17.596Z,93486.84
2022-08-25T11:47:50.268Z,93485.69
2022-08-25T11:49:21.692Z,93484.69
2022-08-25T11:50:32.834Z,93494.91
2022-08-25T11:51:42.214Z,93483.19
2022-08-25T11:52:49.179Z,93485.72
2022-08-25T11:53:48.468Z,93464.72
2022-08-25T11:54:48.421Z,93473.56
2022-08-25T11:55:49.896Z,93472.81
2022-08-25T11:57:05.342Z,93479.06
2022-08-25T11:58:39.103Z,93487.06
2022-08-25T11:59:52.516Z,93487.28
2022-08-25T12:00:50.440Z,93473.63
2022-08-25T12:01:47.416Z,93485.53
2022-08-25T12:02:47.436Z,93484.34
2022-08-25T12:03:44.191Z,93479.47
2022-08-25T12:04:44.164Z,93482.53
2022-08-25T12:06:13.160Z,93491.22
2022-08-25T12:07:10.666Z,93474.31
2022-08-25T12:08:26.398Z,93473.22
2022-08-25T12:09:23.228Z,93463.91
2022-08-25T12:10:23.794Z,93458.88
2022-08-25T12:11:41.782Z,93462.03
2022-08-25T12:12:56.268Z,93467.41
2022-08-25T12:13:53.291Z,93482.22
2022-08-25T12:14:51.755Z,93447.56
2022-08-25T12:15:48.412Z,93468.19
2022-08-25T12:16:52.206Z,93468.47
2022-08-25T12:18:12.759Z,93468.47
2022-08-25T12:19:24.104Z,93466.47
2022-08-25T12:20:58.471Z,93463.31
2022-08-25T12:21:59.083Z,93474.69
2022-08-25T12:22:57.616Z,93474.72
2022-08-25T12:24:09.574Z,93479.56
2022-08-25T12:25:24.483Z,93478.97
2022-08-25T12:26:30.315Z,93470.84
2022-08-25T12:27:52.880Z,93474.56
2022-08-25T12:29:08.214Z,93480.31
2022-08-25T12:30:45.777Z,93476.97
2022-08-25T12:32:04.674Z,93480.63
2022-08-25T12:33:03.215Z,93472.44
2022-08-25T12:34:24.257Z,93470.44
2022-08-25T12:35:50.075Z,93485.84
2022-08-25T12:37:06.167Z,93472.56
2022-08-25T12:38:08.997Z,93470.44
2022-08-25T12:39:18.298Z,93473.78
2022-08-25T12:40:26.784Z,93474.09
2022-08-25T12:41:30.868Z,93466.31
2022-08-25T12:42:46.100Z,93473.94
2022-08-25T12:43:48.509Z,93473.94
2022-08-25T12:44:48.010Z,93480.03
2022-08-25T12:45:51.994Z,93474.63
2022-08-25T12:47:27.248Z,93472.84
2022-08-25T12:48:26.606Z,93476.00
2022-08-25T12:49:32.351Z,93478.53
2022-08-25T12:50:48.221Z,93461.16
2022-08-25T12:51:59.232Z,93475.00
2022-08-25T12:53:07.381Z,93492.28
2022-08-25T12:54:48.475Z,93484.91
2022-08-25T12:55:51.752Z,93469.69
2022-08-25T12:56:55.298Z,93473.97
2022-08-25T12:57:58.791Z,93482.13
2022-08-25T12:59:12.843Z,93486.06
2022-08-25T13:00:22.411Z,93487.34
2022-08-25T13:01:35.222Z,93483.66
2022-08-25T13:02:54.247Z,93477.09
2022-08-25T13:04:15.104Z,93479.91
2022-08-25T13:05:25.631Z,93489.31
2022-08-25T13:06:29.647Z,93475.47
2022-08-25T13:07:47.847Z,93482.28
2022-08-25T13:09:18.356Z,93481.88
2022-08-25T13:10:47.293Z,93486.13
2022-08-25T13:11:54.954Z,93489.22
2022-08-25T13:13:19.106Z,93495.22
2022-08-25T13:14:22.762Z,93491.81
2022-08-25T13:15:46.995Z,93498.19
2022-08-25T13:16:57.546Z,93490.69
2022-08-25T13:17:54.264Z,93488.41
2022-08-25T13:18:51.674Z,93469.22
2022-08-25T13:19:48.474Z,93483.97
2022-08-25T13:20:47.215Z,93494.19
2022-08-25T13:21:44.886Z,93477.50
2022-08-25T13:22:45.080Z,93466.88
2022-08-25T13:23:44.591Z,93468.81
2022-08-25T13:24:43.775Z,93474.09
2022-08-25T13:25:51.933Z,93476.19
2022-08-25T13:26:52.693Z,93479.19
2022-08-25T13:27:56.223Z,93471.50
2022-08-25T13:29:17.834Z,93474.25
2022-08-25T13:30:33.881Z,93463.94
2022-08-25T13:31:31.102Z,93476.00
2022-08-25T13:32:36.624Z,93480.19
2022-08-25T13:33:34.635Z,93472.78
2022-08-25T13:34:37.602Z,93473.78
2022-08-25T13:35:39.306Z,93472.06
2022-08-25T13:37:02.548Z,93466.94
2022-08-25T13:38:19.604Z,93482.75
2022-08-25T13:39:28.745Z,93473.34
2022-08-25T13:40:36.626Z,93454.16
2022-08-25T13:41:34.463Z,93471.75
2022-08-25T13:42:31.870Z,93471.84
2022-08-25T13:43:28.995Z,93472.78
2022-08-25T13:44:28.240Z,93464.84
2022-08-25T13:45:34.790Z,93468.88
2022-08-25T13:46:38.412Z,93462.59
2022-08-25T13:47:43.716Z,93459.34
2022-08-25T13:48:49.471Z,93466.34
2022-08-25T13:49:47.883Z,93475.53
2022-08-25T13:50:50.155Z,93463.06
2022-08-25T13:51:54.751Z,93456.13
2022-08-25T13:52:55.783Z,93456.75
2022-08-25T13:54:06.102Z,93460.22
2022-08-25T13:55:04.767Z,93411.50
2022-08-25T13:56:03.527Z,93464.16
2022-08-25T13:57:07.600Z,93456.88
2022-08-25T13:58:07.245Z,93458.94
2022-08-25T13:59:29.795Z,93470.63
2022-08-25T14:00:34.959Z,93462.91
2022-08-25T14:01:49.231Z,93443.03
2022-08-25T14:02:50.102Z,93457.56
2022-08-25T14:03:47.768Z,93461.34
2022-08-25T14:04:51.294Z,93457.44
2022-08-25T14:06:24.568Z,93457.38
2022-08-25T14:07:22.818Z,93462.47
2022-08-25T14:08:33.108Z,93457.72
2022-08-25T14:09:39.655Z,93464.78
2022-08-25T14:10:45.036Z,93446.09
2022-08-25T14:11:46.519Z,93453.44
2022-08-25T14:12:47.688Z,93459.97
2022-08-25T14:13:45.402Z,93453.59
2022-08-25T14:14:42.170Z,93460.59
2022-08-25T14:15:40.870Z,93451.97
2022-08-25T14:16:54.221Z,93458.41
2022-08-25T14:18:09.179Z,93453.97
2022-08-25T14:19:06.162Z,93444.84
2022-08-25T14:20:06.198Z,93460.59
2022-08-25T14:21:10.746Z,93457.16
2022-08-25T14:22:07.835Z,93466.22
2022-08-25T14:23:18.751Z,93458.19
2022-08-25T14:24:17.933Z,93460.03
2022-08-25T14:25:19.425Z,93457.06
2022-08-25T14:26:16.101Z,93457.25
2022-08-25T14:27:13.131Z,93453.50
2022-08-25T14:28:14.304Z,93453.91
2022-08-25T14:29:11.582Z,93457.78
2022-08-25T14:30:08.864Z,93460.50
2022-08-25T14:31:13.739Z,93469.25
2022-08-25T14:32:13.589Z,93460.13
2022-08-25T14:33:11.827Z,93468.75
2022-08-25T14:34:15.357Z,93469.22
2022-08-25T14:35:12.203Z,93459.94
2022-08-25T14:36:14.263Z,93460.34
2022-08-25T14:37:20.198Z,93458.41
2022-08-25T14:38:23.370Z,93454.69
2022-08-25T14:39:20.268Z,93466.00
2022-08-25T14:40:19.979Z,93463.84
2022-08-25T14:41:16.962Z,93453.91
2022-08-25T14:42:14.200Z,93452.44
2022-08-25T14:43:11.009Z,93463.59
2022-08-25T14:44:09.614Z,93467.63
2022-08-25T14:45:06.967Z,93447.66
2022-08-25T14:46:10.640Z,93455.28
2022-08-25T14:47:12.339Z,93458.25
2022-08-25T14:48:11.749Z,93443.31
2022-08-25T14:49:12.317Z,93444.22
2022-08-25T14:50:11.148Z,93452.13
2022-08-25T14:51:08.374Z,93440.47
2022-08-25T14:52:30.437Z,93447.56
2022-08-25T14:53:28.687Z,93440.88
2022-08-25T14:54:27.425Z,93436.63
2022-08-25T14:55:32.247Z,93440.88
2022-08-25T14:56:30.336Z,93440.88
2022-08-25T14:57:28.501Z,93417.66
2022-08-25T14:58:25.959Z,93436.44
2022-08-25T14:59:23.480Z,93441.03
2022-08-25T15:00:20.723Z,93437.06
2022-08-25T15:01:28.353Z,93442.50
2022-08-25T15:02:29.361Z,93445.03
2022-08-25T15:03:37.721Z,93439.44
2022-08-25T15:04:36.635Z,93443.81
2022-08-25T15:05:34.599Z,93431.00
2022-08-25T15:06:31.600Z,93423.22
2022-08-25T15:07:49.728Z,93444.00
2022-08-25T15:09:05.025Z,93440.22
2022-08-25T15:10:02.315Z,93450.06
2022-08-25T15:11:00.134Z,93445.34
2022-08-25T15:11:58.145Z,93428.84
2022-08-25T15:12:54.924Z,93441.66
2022-08-25T15:13:51.750Z,93448.75
2022-08-25T15:14:48.668Z,93441.72
2022-08-25T15:15:58.126Z,93431.25
2022-08-25T15:16:56.978Z,93449.06
2022-08-25T15:17:55.326Z,93444.09
2022-08-25T15:18:56.532Z,93447.16
2022-08-25T15:19:53.648Z,93440.88
2022-08-25T15:20:50.405Z,93429.72
2022-08-25T15:21:48.154Z,93432.34
2022-08-25T15:22:45.572Z,93440.47
2022-08-25T15:23:44.510Z,93434.25
2022-08-25T15:24:42.109Z,93444.25
2022-08-25T15:25:41.743Z,93440.78
2022-08-25T15:27:56.356Z,93439.75
2022-08-25T15:28:53.257Z,93436.25
2022-08-25T15:29:50.509Z,93428.53
2022-08-25T15:30:47.217Z,93439.91
2022-08-25T15:31:44.546Z,93420.25
2022-08-25T15:32:41.972Z,93434.06
2022-08-25T15:33:39.607Z,93440.03
2022-08-25T15:34:37.495Z,93435.63
2022-08-25T15:35:35.131Z,93446.63
2022-08-25T15:36:33.335Z,93438.25
2022-08-25T15:37:31.257Z,93437.84
2022-08-25T15:38:28.005Z,93437.56
2022-08-25T15:39:24.730Z,93445.84
2022-08-25T15:40:21.974Z,93453.44
2022-08-25T15:41:19.168Z,93447.53
2022-08-25T15:42:16.729Z,93448.63
2022-08-25T15:43:13.317Z,93442.19
2022-08-25T15:44:11.539Z,93442.47
2022-08-25T15:45:10.250Z,93466.81
2022-08-25T15:46:07.390Z,93445.78
2022-08-25T15:47:04.190Z,93458.69
2022-08-25T15:48:01.504Z,93464.09
2022-08-25T15:49:00.312Z,93449.63
2022-08-25T15:50:08.111Z,93452.59
2022-08-25T15:51:05.464Z,93450.38
2022-08-25T15:52:02.479Z,93455.03
2022-08-25T15:52:59.207Z,93456.06
2022-08-25T15:53:56.423Z,93457.28
2022-08-25T15:54:54.736Z,93459.56
2022-08-25T15:55:52.398Z,93461.81
2022-08-25T15:56:51.726Z,93454.88
2022-08-25T15:57:49.609Z,93451.78
2022-08-25T15:58:49.834Z,93453.44
2022-08-25T15:59:46.714Z,93463.06
2022-08-25T16:00:51.221Z,93456.41
2022-08-25T16:01:53.648Z,93451.75
2022-08-25T16:02:50.889Z,93450.66
2022-08-25T16:03:48.312Z,93452.81
2022-08-25T16:04:46.320Z,93453.41
2022-08-25T16:05:48.134Z,93441.41
2022-08-25T16:06:45.241Z,93446.59
2022-08-25T16:07:42.134Z,93453.78
2022-08-25T16:08:39.291Z,93449.28
2022-08-25T16:09:39.263Z,93445.06
2022-08-25T16:10:37.524Z,93446.59
2022-08-25T16:11:35.495Z,93431.66
2022-08-25T16:12:35.570Z,93444.63
2022-08-25T16:13:33.086Z,93439.50
2022-08-25T16:14:29.791Z,93439.81
2022-08-25T16:15:28.773Z,93438.16
2022-08-25T16:16:29.336Z,93437.22
2022-08-25T16:17:26.071Z,93441.13
2022-08-25T16:18:23.991Z,93419.28
2022-08-25T16:19:20.610Z,93442.53
2022-08-25T16:20:19.613Z,93438.66
2022-08-25T16:21:22.981Z,93435.34
2022-08-25T16:22:22.346Z,93438.84
2022-08-25T16:23:19.857Z,93448.34
2022-08-25T16:24:16.532Z,93433.50
2022-08-25T16:25:14.588Z,93435.44
2022-08-25T16:26:12.962Z,93438.94
2022-08-25T16:27:12.106Z,93446.03
2022-08-25T16:28:11.209Z,93445.69
2022-08-25T16:29:09.339Z,93443.72
2022-08-25T16:30:14.973Z,93445.03
2022-08-25T16:31:16.738Z,93436.75
2022-08-25T16:32:14.684Z,93428.25
2022-08-25T16:33:13.298Z,93446.34
2022-08-25T16:34:13.779Z,93440.47
2022-08-25T16:35:11.344Z,93435.91
2022-08-25T16:36:20.699Z,93444.63
2022-08-25T16:37:18.344Z,93433.81
2022-08-25T16:38:14.989Z,93437.06
2022-08-25T16:39:12.534Z,93424.94
2022-08-25T16:40:13.568Z,93426.16
2022-08-25T16:41:18.267Z,93430.13
2022-08-25T16:42:15.321Z,93423.56
2022-08-25T16:43:12.488Z,93431.28
2022-08-25T16:44:11.159Z,93425.31
2022-08-25T16:45:08.275Z,93429.88
2022-08-25T16:46:08.345Z,93424.75
2022-08-25T16:47:05.089Z,93427.59
2022-08-25T16:48:06.235Z,93429.66
2022-08-25T16:49:05.957Z,93426.69
2022-08-25T16:50:03.593Z,93421.00
2022-08-25T16:51:00.743Z,93438.78
2022-08-25T16:51:58.021Z,93438.19
2022-08-25T16:53:13.419Z,93441.88
2022-08-25T16:54:29.627Z,93448.06
2022-08-25T16:55:28.572Z,93440.38
2022-08-25T16:56:37.662Z,93447.63
2022-08-25T16:57:34.345Z,93443.09
2022-08-25T16:58:33.169Z,93454.28
2022-08-25T16:59:29.922Z,93449.56
2022-08-25T17:00:30.997Z,93452.56
2022-08-25T17:01:30.180Z,93448.59
2022-08-25T17:02:26.933Z,93465.03
2022-08-25T17:03:23.591Z,93470.22
2022-08-25T17:04:21.394Z,93468.00
2022-08-25T17:05:29.855Z,93466.22
2022-08-25T17:06:28.666Z,93470.81
2022-08-25T17:07:25.313Z,93471.91
2022-08-25T17:08:31.048Z,93457.75
2022-08-25T17:09:27.853Z,93468.09
2022-08-25T17:10:26.063Z,93472.25
2022-08-25T17:11:30.205Z,93470.03
2022-08-25T17:12:28.048Z,93464.28
2022-08-25T17:13:24.791Z,93470.66
2022-08-25T17:14:22.353Z,93483.22
2022-08-25T17:15:23.811Z,93479.53
2022-08-25T17:16:22.743Z,93480.28
2022-08-25T17:17:19.945Z,93486.66
2022-08-25T17:18:16.586Z,93475.59
2022-08-25T17:19:15.049Z,93489.47
2022-08-25T17:20:11.760Z,93483.19
2022-08-25T17:21:19.489Z,93491.09
2022-08-25T17:22:22.650Z,93485.13
2022-08-25T17:23:21.123Z,93475.56
2022-08-25T17:24:18.252Z,93476.22
2022-08-25T17:25:14.977Z,93479.22
2022-08-25T17:26:14.822Z,93482.06
2022-08-25T17:27:12.989Z,93482.50
2022-08-25T17:28:12.076Z,93489.25
2022-08-25T17:29:09.581Z,93483.00
2022-08-25T17:30:06.970Z,93491.41
2022-08-25T17:31:03.960Z,93479.75
2022-08-25T17:32:04.931Z,93481.19
2022-08-25T17:33:03.149Z,93480.16
2022-08-25T17:33:59.817Z,93480.38
2022-08-25T17:34:56.475Z,93482.25
2022-08-25T17:35:55.820Z,93478.41
2022-08-25T17:36:54.530Z,93480.25
2022-08-25T17:37:51.307Z,93479.63
2022-08-25T17:38:50.222Z,93484.06
2022-08-25T17:39:46.933Z,93488.53
2022-08-25T17:40:48.194Z,93484.34
2022-08-25T17:41:45.775Z,93489.59
2022-08-25T17:42:42.406Z,93487.25
2022-08-25T17:43:43.415Z,93492.44
2022-08-25T17:44:40.527Z,93477.41
2022-08-25T17:45:39.100Z,93494.16
2022-08-25T17:46:35.864Z,93495.97
2022-08-25T17:47:33.274Z,93494.69
2022-08-25T17:48:30.737Z,93490.66
2022-08-25T17:49:29.809Z,93488.00
2022-08-25T17:50:27.344Z,93491.63
2022-08-25T17:51:24.922Z,93484.22
2022-08-25T17:52:25.647Z,93495.41
2022-08-25T17:53:23.175Z,93496.66
2022-08-25T17:54:22.586Z,93485.72
2022-08-25T17:55:24.346Z,93476.81
2022-08-25T17:56:23.131Z,93494.00
2022-08-25T17:57:19.953Z,93491.38
2022-08-25T17:58:18.486Z,93481.50
2022-08-25T17:59:16.502Z,93491.66
2022-08-25T18:00:15.720Z,93492.00
2022-08-25T18:01:22.652Z,93486.34
2022-08-25T18:02:19.448Z,93495.03
2022-08-25T18:03:16.206Z,93489.88
2022-08-25T18:04:17.597Z,93490.72
2022-08-25T18:05:17.274Z,93495.22
2022-08-25T18:06:15.205Z,93468.63
2022-08-25T18:07:14.145Z,93490.44
2022-08-25T18:08:12.318Z,93496.41
2022-08-25T18:09:10.983Z,93494.69
2022-08-25T18:10:13.818Z,93497.19
2022-08-25T18:11:12.011Z,93493.88
2022-08-25T18:12:11.332Z,93502.00
2022-08-25T18:13:08.812Z,93477.19
2022-08-25T18:14:05.732Z,93496.03
2022-08-25T18:15:03.028Z,93484.88
2022-08-25T18:16:00.142Z,93493.19
2022-08-25T18:16:57.614Z,93501.44
2022-08-25T18:17:57.053Z,93493.91
2022-08-25T18:18:55.297Z,93493.91
2022-08-25T18:19:54.140Z,93494.53
2022-08-25T18:20:51.090Z,93489.13
2022-08-25T18:21:49.368Z,93481.38
2022-08-25T18:22:48.653Z,93496.09
2022-08-25T18:23:45.748Z,93495.81
2022-08-25T18:24:44.453Z,93480.03
2022-08-25T18:25:42.020Z,93498.44
2022-08-25T18:26:39.955Z,93503.50
2022-08-25T18:27:37.012Z,93496.31
2022-08-25T18:28:34.807Z,93500.59
2022-08-25T18:29:32.036Z,93503.19
2022-08-25T18:30:28.684Z,93502.00
2022-08-25T18:31:25.842Z,93495.72
2022-08-25T18:32:22.671Z,93490.47
2022-08-25T18:33:22.898Z,93492.19
2022-08-25T18:34:19.629Z,93501.91
2022-08-25T18:35:16.913Z,93504.00
2022-08-25T18:36:20.486Z,93503.50
2022-08-25T18:37:36.605Z,93495.59
2022-08-25T18:38:51.526Z,93499.13
2022-08-25T18:40:13.713Z,93491.38
2022-08-25T18:41:11.664Z,93502.06
2022-08-25T18:42:08.740Z,93495.38
2022-08-25T18:43:08.398Z,93498.66
2022-08-25T18:44:06.565Z,93492.59
2022-08-25T18:45:06.587Z,93495.91
2022-08-25T18:46:06.934Z,93499.44
2022-08-25T18:47:07.865Z,93496.94
2022-08-25T18:48:05.152Z,93496.16
2022-08-25T18:49:03.682Z,93495.94
2022-08-25T18:50:04.501Z,93500.19
2022-08-25T18:51:02.514Z,93501.66
2022-08-25T18:51:59.158Z,93497.84
2022-08-25T18:52:57.323Z,93499.09
2022-08-25T18:53:59.111Z,93496.94
2022-08-25T18:54:58.322Z,93473.50
2022-08-25T18:55:55.279Z,93494.22
2022-08-25T18:56:53.297Z,93496.03
2022-08-25T18:57:51.462Z,93497.41
2022-08-25T18:58:49.889Z,93494.41
2022-08-25T18:59:48.365Z,93479.97
2022-08-25T19:00:45.815Z,93495.56
2022-08-25T19:01:44.649Z,93492.59
2022-08-25T19:03:00.073Z,93495.34
2022-08-25T19:03:58.293Z,93491.31
2022-08-25T19:04:56.433Z,93486.59
2022-08-25T19:05:57.454Z,93482.81
2022-08-25T19:06:54.520Z,93491.31
2022-08-25T19:07:52.461Z,93492.84
2022-08-25T19:08:49.159Z,93496.59
2022-08-25T19:09:45.992Z,93489.97
2022-08-25T19:10:45.835Z,93490.97
2022-08-25T19:11:43.232Z,93494.78
2022-08-25T19:12:41.598Z,93493.84
2022-08-25T19:13:41.123Z,93497.53
2022-08-25T19:14:38.519Z,93493.16
2022-08-25T19:15:37.811Z,93481.69
2022-08-25T19:16:38.381Z,93490.56
2022-08-25T19:17:37.355Z,93492.59
2022-08-25T19:18:34.620Z,93491.09
2022-08-25T19:19:32.047Z,93495.22
2022-08-25T19:20:31.481Z,93490.72
2022-08-25T19:21:28.454Z,93494.34
2022-08-25T19:22:40.696Z,93497.94
2022-08-25T19:23:39.016Z,93489.53
2022-08-25T19:24:36.362Z,93494.00
2022-08-25T19:25:34.716Z,93473.31
2022-08-25T19:26:34.425Z,93470.63
2022-08-25T19:27:32.200Z,93487.16
2022-08-25T19:28:29.581Z,93491.44
2022-08-25T19:29:26.612Z,93481.19
2022-08-25T19:30:29.557Z,93482.69
2022-08-25T19:31:28.148Z,93488.69
2022-08-25T19:32:30.409Z,93487.72
2022-08-25T19:33:42.812Z,93486.50
2022-08-25T19:34:44.099Z,93491.66
2022-08-25T19:35:45.356Z,93491.78
2022-08-25T19:36:43.030Z,93486.19
2022-08-25T19:37:39.991Z,93484.91
2022-08-25T19:38:37.300Z,93476.78
2022-08-25T19:39:35.740Z,93480.16
2022-08-25T19:40:37.843Z,93467.03
2022-08-25T19:41:35.587Z,93482.34
2022-08-25T19:42:38.142Z,93476.09
2022-08-25T19:43:35.176Z,93484.22
2022-08-25T19:44:32.516Z,93479.81
2022-08-25T19:45:32.213Z,93472.66
2022-08-25T19:46:35.770Z,93488.69
2022-08-25T19:47:32.781Z,93480.19
2022-08-25T19:48:29.503Z,93483.53
2022-08-25T19:49:31.633Z,93480.94
2022-08-25T19:50:30.053Z,93479.19
2022-08-25T19:51:26.884Z,93481.25
2022-08-25T19:52:24.989Z,93479.72
2022-08-25T19:53:23.578Z,93466.94
2022-08-25T19:54:25.223Z,93486.25
2022-08-25T19:55:22.143Z,93466.19
2022-08-25T19:56:19.415Z,93487.56
2022-08-25T19:57:28.479Z,93481.06
2022-08-25T19:58:32.965Z,93467.63
2022-08-25T19:59:34.433Z,93486.69
2022-08-25T20:00:40.339Z,93484.81
2022-08-25T20:01:37.240Z,93488.53
2022-08-25T20:02:37.213Z,93488.16
2022-08-25T20:03:35.158Z,93487.28
2022-08-25T20:04:32.770Z,93487.22
2022-08-25T20:05:30.111Z,93498.03
2022-08-25T20:06:27.718Z,93490.50
2022-08-25T20:07:27.988Z,93488.97
2022-08-25T20:08:29.743Z,93492.94
2022-08-25T20:09:38.951Z,93481.72